sensor_id;sensor_type;location;lat;lon;timestamp;pressure;altitude;pressure_sealevel;temperature;humidity
59831;BME280;45711;50.108;13.712;2023-03-04T02:20:47;98050.25;;;-5.28;84.00
59831;BME280;45711;50.108;13.712;2023-03-04T02:23:46;98049.44;;;-5.28;84.59
59831;BME280;45711;50.108;13.712;2023-03-04T02:26:38;98048.88;;;-5.39;84.38
59831;BME280;45711;50.108;13.712;2023-03-04T02:29:52;98044.47;;;-5.38;84.24
59831;BME280;45711;50.108;13.712;2023-03-04T02:32:21;98047.38;;;-5.33;83.47
59831;BME280;45711;50.108;13.712;2023-03-04T02:36:35;98034.13;;;-5.32;83.68
59831;BME280;45711;50.108;13.712;2023-03-04T02:42:00;98029.88;;;-5.47;83.40
59831;BME280;45711;50.108;13.712;2023-03-04T02:44:42;98037.22;;;-5.28;82.38
59831;BME280;45711;50.108;13.712;2023-03-04T02:47:21;98028.91;;;-5.54;82.91
59831;BME280;45711;50.108;13.712;2023-03-04T02:49:52;98029.41;;;-5.51;83.30
59831;BME280;45711;50.108;13.712;2023-03-04T02:52:26;98021.81;;;-5.38;83.81
59831;BME280;45711;50.108;13.712;2023-03-04T02:54:53;98019.41;;;-5.24;83.76
59831;BME280;45711;50.108;13.712;2023-03-04T02:57:42;98017.50;;;-5.53;82.85
59831;BME280;45711;50.108;13.712;2023-03-04T03:00:23;98024.91;;;-5.19;83.14
59831;BME280;45711;50.108;13.712;2023-03-04T03:06:26;98014.59;;;-5.36;82.88
59831;BME280;45711;50.108;13.712;2023-03-04T03:08:58;98004.31;;;-5.14;82.93
59831;BME280;45711;50.108;13.712;2023-03-04T03:11:28;98012.75;;;-5.27;81.72
59831;BME280;45711;50.108;13.712;2023-03-04T03:14:29;98007.63;;;-5.66;82.64
59831;BME280;45711;50.108;13.712;2023-03-04T03:16:57;98000.28;;;-5.86;83.41
59831;BME280;45711;50.108;13.712;2023-03-04T03:19:29;98004.94;;;-5.73;83.57
59831;BME280;45711;50.108;13.712;2023-03-04T03:22:11;98008.38;;;-5.81;83.16
59831;BME280;45711;50.108;13.712;2023-03-04T03:24:40;98005.03;;;-5.89;82.48
59831;BME280;45711;50.108;13.712;2023-03-04T03:27:13;98012.31;;;-5.85;83.42
59831;BME280;45711;50.108;13.712;2023-03-04T03:30:12;98005.19;;;-5.91;83.88
59831;BME280;45711;50.108;13.712;2023-03-04T03:32:49;98006.88;;;-5.98;84.02
59831;BME280;45711;50.108;13.712;2023-03-04T03:35:20;98019.09;;;-5.98;84.83
59831;BME280;45711;50.108;13.712;2023-03-04T03:37:52;98009.72;;;-6.08;84.11
59831;BME280;45711;50.108;13.712;2023-03-04T03:40:20;98014.25;;;-6.10;85.03
59831;BME280;45711;50.108;13.712;2023-03-04T03:42:57;98013.59;;;-6.03;84.19
59831;BME280;45711;50.108;13.712;2023-03-04T03:45:46;98007.69;;;-5.97;83.94
59831;BME280;45711;50.108;13.712;2023-03-04T03:48:21;98002.03;;;-5.78;83.48
59831;BME280;45711;50.108;13.712;2023-03-04T03:51:03;98008.56;;;-5.82;83.60
59831;BME280;45711;50.108;13.712;2023-03-04T03:54:08;98003.38;;;-5.59;82.50
59831;BME280;45711;50.108;13.712;2023-03-04T03:56:32;97997.28;;;-5.74;81.80
59831;BME280;45711;50.108;13.712;2023-03-04T03:59:10;97997.88;;;-5.64;82.49
59831;BME280;45711;50.108;13.712;2023-03-04T04:01:43;97999.66;;;-5.88;82.78
59831;BME280;45711;50.108;13.712;2023-03-04T04:04:08;98001.41;;;-6.11;83.52
59831;BME280;45711;50.108;13.712;2023-03-04T04:06:37;97996.31;;;-5.96;83.85
59831;BME280;45711;50.108;13.712;2023-03-04T04:09:08;98001.00;;;-5.69;83.36
59831;BME280;45711;50.108;13.712;2023-03-04T04:11:44;97998.19;;;-5.67;82.43
59831;BME280;45711;50.108;13.712;2023-03-04T04:14:22;98001.16;;;-5.93;82.81
59831;BME280;45711;50.108;13.712;2023-03-04T04:17:25;97995.09;;;-6.17;83.27
59831;BME280;45711;50.108;13.712;2023-03-04T04:22:44;97985.72;;;-5.95;83.69
59831;BME280;45711;50.108;13.712;2023-03-04T04:25:13;97996.94;;;-6.25;82.20
59831;BME280;45711;50.108;13.712;2023-03-04T04:27:58;97989.97;;;-6.33;82.82
59831;BME280;45711;50.108;13.712;2023-03-04T04:30:30;97999.50;;;-6.17;83.22
59831;BME280;45711;50.108;13.712;2023-03-04T04:33:00;97993.13;;;-6.15;83.18
59831;BME280;45711;50.108;13.712;2023-03-04T04:35:59;97993.75;;;-6.04;82.28
59831;BME280;45711;50.108;13.712;2023-03-04T04:38:43;98005.19;;;-6.14;82.41
59831;BME280;45711;50.108;13.712;2023-03-04T04:41:18;97997.31;;;-6.45;83.53
59831;BME280;45711;50.108;13.712;2023-03-04T04:43:45;97999.91;;;-6.45;83.88
59831;BME280;45711;50.108;13.712;2023-03-04T04:46:16;97989.72;;;-6.15;82.86
59831;BME280;45711;50.108;13.712;2023-03-04T04:48:49;98004.38;;;-5.91;82.77
59831;BME280;45711;50.108;13.712;2023-03-04T04:51:31;98009.25;;;-5.88;81.72
59831;BME280;45711;50.108;13.712;2023-03-04T04:53:59;98000.66;;;-5.66;81.53
59831;BME280;45711;50.108;13.712;2023-03-04T04:56:28;98005.56;;;-5.94;81.95
59831;BME280;45711;50.108;13.712;2023-03-04T04:58:58;97999.13;;;-6.14;83.22
59831;BME280;45711;50.108;13.712;2023-03-04T05:01:31;98005.91;;;-6.36;83.39
59831;BME280;45711;50.108;13.712;2023-03-04T05:04:07;98006.53;;;-6.26;83.63
59831;BME280;45711;50.108;13.712;2023-03-04T05:07:03;98004.94;;;-6.35;82.66
59831;BME280;45711;50.108;13.712;2023-03-04T05:09:48;98014.59;;;-6.44;82.95
59831;BME280;45711;50.108;13.712;2023-03-04T05:12:14;98012.31;;;-6.55;83.86
59831;BME280;45711;50.108;13.712;2023-03-04T05:14:48;98011.53;;;-6.55;83.14
59831;BME280;45711;50.108;13.712;2023-03-04T05:19:12;98012.66;;;-6.58;83.44
59831;BME280;45711;50.108;13.712;2023-03-04T05:20:20;98018.16;;;-6.45;83.27
59831;BME280;45711;50.108;13.712;2023-03-04T05:22:59;98029.53;;;-6.38;81.86
59831;BME280;45711;50.108;13.712;2023-03-04T05:25:34;98023.03;;;-6.50;81.74
59831;BME280;45711;50.108;13.712;2023-03-04T05:28:02;98025.38;;;-6.71;82.29
59831;BME280;45711;50.108;13.712;2023-03-04T05:30:37;98027.94;;;-6.47;81.45
59831;BME280;45711;50.108;13.712;2023-03-04T05:33:10;98020.25;;;-6.40;82.12
59831;BME280;45711;50.108;13.712;2023-03-04T05:36:00;98028.53;;;-6.37;82.05
59831;BME280;45711;50.108;13.712;2023-03-04T05:38:26;98041.28;;;-6.50;82.23
59831;BME280;45711;50.108;13.712;2023-03-04T05:40:57;98037.28;;;-6.77;82.97
59831;BME280;45711;50.108;13.712;2023-03-04T05:44:19;98043.28;;;-6.76;83.15
59831;BME280;45711;50.108;13.712;2023-03-04T05:49:50;98042.00;;;-6.80;81.79
59831;BME280;45711;50.108;13.712;2023-03-04T05:55:24;98044.47;;;-6.32;82.43
59831;BME280;45711;50.108;13.712;2023-03-04T05:58:03;98037.66;;;-6.41;81.77
59831;BME280;45711;50.108;13.712;2023-03-04T06:00:54;98051.06;;;-6.60;82.49
59831;BME280;45711;50.108;13.712;2023-03-04T06:03:45;98050.69;;;-6.41;83.55
59831;BME280;45711;50.108;13.712;2023-03-04T06:06:54;98054.63;;;-6.05;82.07
59831;BME280;45711;50.108;13.712;2023-03-04T06:09:36;98056.28;;;-6.04;82.12
59831;BME280;45711;50.108;13.712;2023-03-04T06:12:40;98055.06;;;-5.94;81.64
59831;BME280;45711;50.108;13.712;2023-03-04T06:23:13;98062.66;;;-5.07;80.33
59831;BME280;45711;50.108;13.712;2023-03-04T07:30:39;98064.50;;;-1.77;75.53
59831;BME280;45711;50.108;13.712;2023-03-04T07:46:10;98075.50;;;-1.53;78.06
59831;BME280;45711;50.108;13.712;2023-03-04T07:49:13;98075.94;;;-1.43;78.83
59831;BME280;45711;50.108;13.712;2023-03-04T09:31:17;98069.91;;;1.67;70.81
59831;BME280;45711;50.108;13.712;2023-03-04T09:34:00;98073.25;;;1.81;71.57
59831;BME280;45711;50.108;13.712;2023-03-04T10:21:05;98043.91;;;2.26;71.70
59831;BME280;45711;50.108;13.712;2023-03-04T10:26:21;98040.16;;;2.34;70.80
59831;BME280;45711;50.108;13.712;2023-03-04T10:32:08;98038.13;;;2.36;71.11
59831;BME280;45711;50.108;13.712;2023-03-04T10:55:19;98023.34;;;2.46;71.10
59831;BME280;45711;50.108;13.712;2023-03-04T11:00:57;98019.91;;;2.46;71.24
59831;BME280;45711;50.108;13.712;2023-03-04T11:04:14;98011.03;;;2.40;70.76
59831;BME280;45711;50.108;13.712;2023-03-04T11:10:37;97997.72;;;2.47;71.83
59831;BME280;45711;50.108;13.712;2023-03-04T11:13:43;97996.25;;;2.51;70.76
59831;BME280;45711;50.108;13.712;2023-03-04T11:17:18;97993.53;;;2.58;71.35
59831;BME280;45711;50.108;13.712;2023-03-04T11:20:10;97996.75;;;2.60;70.95
59831;BME280;45711;50.108;13.712;2023-03-04T11:23:24;97987.94;;;2.66;70.62
59831;BME280;45711;50.108;13.712;2023-03-04T11:26:22;97980.44;;;2.63;70.80
59831;BME280;45711;50.108;13.712;2023-03-04T11:29:11;97977.13;;;2.67;70.97
59831;BME280;45711;50.108;13.712;2023-03-04T11:32:34;97980.03;;;2.77;71.03
59831;BME280;45711;50.108;13.712;2023-03-04T11:35:28;97977.84;;;2.74;71.05
59831;BME280;45711;50.108;13.712;2023-03-04T12:08:57;97944.06;;;2.76;70.90
59831;BME280;45711;50.108;13.712;2023-03-04T12:12:05;97943.25;;;2.76;70.55
59831;BME280;45711;50.108;13.712;2023-03-04T12:24:25;97926.72;;;3.39;69.47
59831;BME280;45711;50.108;13.712;2023-03-04T12:39:02;97927.06;;;3.95;68.79
59831;BME280;45711;50.108;13.712;2023-03-04T12:48:29;97912.66;;;4.02;70.37
59831;BME280;45711;50.108;13.712;2023-03-04T12:51:18;97918.00;;;3.91;69.12
59831;BME280;45711;50.108;13.712;2023-03-04T12:54:33;97914.34;;;3.92;68.75
59831;BME280;45711;50.108;13.712;2023-03-04T13:01:07;97909.41;;;4.12;69.85
59831;BME280;45711;50.108;13.712;2023-03-04T13:10:33;97892.72;;;4.12;70.22
59831;BME280;45711;50.108;13.712;2023-03-04T13:33:55;97899.38;;;4.14;70.17
59831;BME280;45711;50.108;13.712;2023-03-04T13:47:19;97894.09;;;4.14;71.24
59831;BME280;45711;50.108;13.712;2023-03-04T14:13:58;97875.97;;;4.23;71.78
59831;BME280;45711;50.108;13.712;2023-03-04T22:50:29;97810.78;;;2.49;87.17
59831;BME280;45711;50.108;13.712;2023-03-04T22:56:40;97804.56;;;2.32;88.35
59831;BME280;45711;50.108;13.712;2023-03-04T23:02:59;97799.88;;;2.81;85.40
59831;BME280;45711;50.108;13.712;2023-03-04T23:09:46;97806.88;;;2.63;86.22
59831;BME280;45711;50.108;13.712;2023-03-04T23:12:18;97801.78;;;2.15;89.06
59831;BME280;45711;50.108;13.712;2023-03-04T23:15:13;97799.72;;;2.29;88.58
59831;BME280;45711;50.108;13.712;2023-03-04T23:18:15;97799.41;;;2.48;86.39
59831;BME280;45711;50.108;13.712;2023-03-04T23:20:52;97793.56;;;2.58;86.53
59831;BME280;45711;50.108;13.712;2023-03-04T23:24:02;97794.56;;;2.69;85.04
59831;BME280;45711;50.108;13.712;2023-03-04T23:26:57;97790.78;;;2.30;87.20
59831;BME280;45711;50.108;13.712;2023-03-04T23:30:10;97794.13;;;2.60;85.95
59831;BME280;45711;50.108;13.712;2023-03-04T23:38:47;97789.50;;;2.20;88.07
59831;BME280;45711;50.108;13.712;2023-03-04T23:56:58;97786.19;;;2.60;85.22
59831;BME280;45711;50.108;13.712;2023-03-04T23:59:37;97781.84;;;2.54;85.56
